Time;durP1;ratioP1;P1;durP2;ratioP2;P2;SDS_P1;SDS_P2;PMS_P1;PMS_P2;Temp;Humidity;BMP_temperature;BMP_pressure;BME280_temperature;BME280_humidity;BME280_pressure;Samples;Min_cycle;Max_cycle;Signal;HPM_P1;HPM_P2
2022/09/03 00:01:37;;;;;;;;;;;16.00;98.90;;;;;;5014334;28;20028;-95
2022/09/03 00:04:05;;;;;;;;;;;16.00;99.00;;;;;;4948501;28;19973;-94
2022/09/03 00:06:37;;;;;;;;;;;15.80;99.10;;;;;;4980435;28;20062;-92
2022/09/03 00:09:12;;;;;;;;;;;15.90;99.30;;;;;;4964271;28;20409;-93
2022/09/03 00:11:39;;;;;;;;;;;15.80;99.30;;;;;;4964592;28;20373;-94
2022/09/03 00:14:06;;;;;;;;;;;15.70;99.40;;;;;;4980485;28;19933;-94
2022/09/03 00:16:45;;;;;;;;;;;15.70;99.50;;;;;;4965447;28;19926;-91
2022/09/03 00:19:11;;;;;;;;;;;15.60;99.60;;;;;;4980184;28;20408;-92
2022/09/03 00:21:38;;;;;;;;;;;15.60;99.60;;;;;;4948228;28;19930;-93
2022/09/03 00:24:05;;;;;;;;;;;15.50;99.80;;;;;;4948208;28;19952;-93
2022/09/03 00:26:33;;;;;;;;;;;15.50;99.80;;;;;;4980890;28;19930;-92
2022/09/03 00:29:02;;;;;;;;;;;15.40;99.90;;;;;;4961085;28;19927;-91
2022/09/03 00:31:35;;;;;;;;;;;15.40;99.90;;;;;;4992923;28;20381;-92
2022/09/03 00:34:06;;;;;;;;;;;15.40;99.90;;;;;;4992037;28;19966;-94
2022/09/03 00:36:40;;;;;;;;;;;15.40;99.90;;;;;;4991914;28;19930;-91
2022/09/03 00:39:10;;;;;;;;;;;15.30;99.90;;;;;;4991424;28;20330;-92
2022/09/03 00:41:37;;;;;;;;;;;15.30;99.90;;;;;;5001529;28;19926;-91
2022/09/03 00:44:18;;;;;;;;;;;15.20;99.90;;;;;;4982717;28;19930;-91
2022/09/03 00:46:46;;;;;;;;;;;15.20;99.90;;;;;;5021486;28;20065;-92
2022/09/03 00:49:31;;;;;;;;;;;15.20;99.90;;;;;;4998751;28;20123;-92
2022/09/03 00:52:16;;;;;;;;;;;15.30;99.90;;;;;;5030033;28;19911;-92
2022/09/03 00:54:54;;;;;;;;;;;15.20;99.90;;;;;;5009216;28;20282;-93
2022/09/03 00:57:33;;;;;;;;;;;15.20;99.90;;;;;;4992807;28;20297;-93
2022/09/03 01:00:20;;;;;;;;;;;15.10;99.90;;;;;;4976588;28;19934;-93
2022/09/03 01:02:52;;;;;;;;;;;15.00;99.90;;;;;;4977702;28;19926;-93
2022/09/03 01:05:25;;;;;;;;;;;15.00;99.90;;;;;;5009273;28;19929;-92
2022/09/03 01:07:51;;;;;;;;;;;15.10;99.90;;;;;;4992851;28;19930;-91
2022/09/03 01:10:31;;;;;;;;;;;14.90;99.90;;;;;;4979185;28;20441;-92
2022/09/03 01:13:11;;;;;;;;;;;14.90;99.90;;;;;;4993733;28;19933;-92
2022/09/03 01:15:36;;;;;;;;;;;14.80;99.90;;;;;;4996077;28;19926;-93
2022/09/03 01:18:21;;;;;;;;;;;14.80;99.90;;;;;;4969059;28;19926;-94
2022/09/03 01:20:46;;;;;;;;;;;14.80;99.90;;;;;;5017123;28;19926;-93
2022/09/03 01:23:12;;;;;;;;;;;14.80;99.90;;;;;;5019146;28;19989;-92
2022/09/03 01:25:47;;;;;;;;;;;14.80;99.90;;;;;;4974015;28;19910;-94
2022/09/03 01:28:25;;;;;;;;;;;14.80;99.90;;;;;;4989293;28;19965;-91
2022/09/03 01:31:10;;;;;;;;;;;14.70;99.90;;;;;;5018641;28;19981;-93
2022/09/03 01:33:39;;;;;;;;;;;15.10;99.90;;;;;;5012565;28;19972;-92
2022/09/03 01:36:05;;;;;;;;;;;14.70;99.90;;;;;;4995798;28;19930;-92
2022/09/03 01:38:50;;;;;;;;;;;14.60;99.90;;;;;;5010635;28;19941;-91
2022/09/03 01:44:05;;;;;;;;;;;14.60;99.90;;;;;;5016986;28;19952;-91
2022/09/03 01:46:40;;;;;;;;;;;14.60;99.90;;;;;;5015915;28;20228;-92
2022/09/03 01:49:38;;;;;;;;;;;14.50;99.90;;;;;;4977979;28;20282;-93
2022/09/03 01:52:06;;;;;;;;;;;14.60;99.90;;;;;;4956979;28;19977;-92
2022/09/03 01:54:33;;;;;;;;;;;14.60;99.90;;;;;;4993046;28;20002;-93
2022/09/03 01:57:19;;;;;;;;;;;14.60;99.90;;;;;;5008925;28;19932;-92
2022/09/03 01:59:47;;;;;;;;;;;14.60;99.90;;;;;;4960542;28;19926;-93
2022/09/03 02:02:23;;;;;;;;;;;14.50;99.90;;;;;;4976048;28;20312;-95
2022/09/03 02:04:56;;;;;;;;;;;14.50;99.90;;;;;;4992456;28;19926;-93
2022/09/03 02:07:21;;;;;;;;;;;14.50;99.90;;;;;;4991736;28;20651;-93
2022/09/03 02:09:47;;;;;;;;;;;14.40;99.90;;;;;;4976151;28;19985;-92
2022/09/03 02:12:16;;;;;;;;;;;14.30;99.90;;;;;;4976195;28;19933;-94
2022/09/03 02:14:41;;;;;;;;;;;14.30;99.90;;;;;;4992214;28;19954;-94
2022/09/03 02:17:07;;;;;;;;;;;14.30;99.90;;;;;;4992633;28;19933;-93
2022/09/03 02:19:33;;;;;;;;;;;14.20;99.90;;;;;;4975516;28;19937;-93
2022/09/03 02:21:58;;;;;;;;;;;14.10;99.90;;;;;;4975356;28;19926;-94
2022/09/03 02:24:24;;;;;;;;;;;14.00;99.90;;;;;;4991801;28;19933;-92
2022/09/03 02:26:50;;;;;;;;;;;14.00;99.90;;;;;;4976013;28;20280;-93
2022/09/03 02:29:16;;;;;;;;;;;14.10;99.90;;;;;;4991534;28;20442;-92
2022/09/03 02:31:42;;;;;;;;;;;14.10;99.90;;;;;;4992179;28;20282;-94
2022/09/03 02:34:08;;;;;;;;;;;14.00;99.90;;;;;;4991569;28;19937;-91
2022/09/03 02:36:34;;;;;;;;;;;14.00;99.90;;;;;;4976134;28;19953;-92
2022/09/03 02:38:59;;;;;;;;;;;14.00;99.90;;;;;;4992227;28;19932;-91
2022/09/03 02:41:26;;;;;;;;;;;14.00;99.90;;;;;;4975286;28;19930;-93
2022/09/03 02:44:10;;;;;;;;;;;14.00;99.90;;;;;;4995570;28;19991;-93
2022/09/03 02:46:38;;;;;;;;;;;14.00;99.90;;;;;;5024520;28;19926;-92
2022/09/03 02:49:03;;;;;;;;;;;14.00;99.90;;;;;;5013025;28;19957;-93
2022/09/03 02:51:37;;;;;;;;;;;14.10;99.90;;;;;;4980437;28;19910;-91
2022/09/03 02:54:03;;;;;;;;;;;14.10;99.90;;;;;;5096535;23;19933;-92
2022/09/03 02:56:29;;;;;;;;;;;14.10;99.90;;;;;;4988262;28;19930;-93
2022/09/03 02:58:55;;;;;;;;;;;13.80;99.90;;;;;;5002679;28;19933;-93
2022/09/03 03:01:20;;;;;;;;;;;14.10;99.90;;;;;;4983034;28;19932;-93
2022/09/03 03:03:46;;;;;;;;;;;14.10;99.90;;;;;;4966118;28;19990;-91
2022/09/03 03:06:13;;;;;;;;;;;14.10;99.90;;;;;;5029474;28;19948;-93
2022/09/03 03:08:38;;;;;;;;;;;14.10;99.90;;;;;;4980992;28;19976;-92
2022/09/03 03:11:04;;;;;;;;;;;14.10;99.90;;;;;;4981050;28;20028;-93
2022/09/03 03:13:30;;;;;;;;;;;14.10;99.90;;;;;;4963451;28;20028;-93
2022/09/03 03:15:59;;;;;;;;;;;14.10;99.90;;;;;;4996784;28;19926;-93
2022/09/03 03:18:24;;;;;;;;;;;14.10;99.90;;;;;;4964687;28;19983;-93
2022/09/03 03:20:50;;;;;;;;;;;14.20;99.90;;;;;;4980622;28;19934;-90
2022/09/03 03:23:16;;;;;;;;;;;14.10;99.90;;;;;;4979526;28;19933;-94
2022/09/03 03:25:41;;;;;;;;;;;14.10;99.90;;;;;;4978924;28;19989;-96
2022/09/03 03:28:07;;;;;;;;;;;14.20;99.90;;;;;;4978459;28;19926;-93
2022/09/03 03:30:33;;;;;;;;;;;14.20;99.90;;;;;;4979699;28;20354;-92
2022/09/03 03:32:58;;;;;;;;;;;14.20;99.90;;;;;;4998122;28;20439;-93
2022/09/03 03:35:24;;;;;;;;;;;14.30;99.90;;;;;;4982063;28;19948;-93
2022/09/03 03:37:49;;;;;;;;;;;14.30;99.90;;;;;;5030975;28;19964;-93
2022/09/03 03:40:15;;;;;;;;;;;14.40;99.90;;;;;;4981211;28;19976;-93
2022/09/03 03:42:41;;;;;;;;;;;14.40;99.90;;;;;;4981338;28;20374;-92
2022/09/03 03:45:06;;;;;;;;;;;14.30;99.90;;;;;;4966830;28;19926;-94
2022/09/03 03:47:32;;;;;;;;;;;14.30;99.90;;;;;;4969757;28;19972;-92
2022/09/03 03:49:58;;;;;;;;;;;14.30;99.90;;;;;;5015186;28;19909;-92
2022/09/03 03:52:24;;;;;;;;;;;14.30;99.90;;;;;;5026677;28;19926;-94
2022/09/03 03:54:50;;;;;;;;;;;14.20;99.90;;;;;;5005539;28;19925;-91
2022/09/03 03:57:15;;;;;;;;;;;14.30;99.90;;;;;;5007294;28;19929;-90
2022/09/03 03:59:41;;;;;;;;;;;14.20;99.90;;;;;;4991905;28;20068;-92
2022/09/03 04:02:06;;;;;;;;;;;14.20;99.90;;;;;;4984510;28;19930;-93
2022/09/03 04:04:32;;;;;;;;;;;14.10;99.90;;;;;;5030103;28;20004;-94
2022/09/03 04:06:57;;;;;;;;;;;14.00;99.90;;;;;;5013391;28;19926;-94
2022/09/03 04:09:23;;;;;;;;;;;14.10;99.90;;;;;;4999959;28;19926;-92
2022/09/03 04:11:49;;;;;;;;;;;14.00;99.90;;;;;;4985169;28;19926;-93
2022/09/03 04:14:16;;;;;;;;;;;14.00;99.90;;;;;;4999009;28;20366;-94
2022/09/03 04:16:42;;;;;;;;;;;14.00;99.90;;;;;;4982386;28;19929;-93
2022/09/03 04:19:08;;;;;;;;;;;14.00;99.90;;;;;;4981023;28;20365;-94
2022/09/03 04:21:33;;;;;;;;;;;13.90;99.90;;;;;;4980450;28;19926;-93
2022/09/03 04:23:59;;;;;;;;;;;13.90;99.90;;;;;;4996812;28;19933;-95
2022/09/03 04:26:31;;;;;;;;;;;13.80;99.90;;;;;;4995737;28;20389;-93
2022/09/03 04:29:04;;;;;;;;;;;13.70;99.90;;;;;;4964216;28;20460;-93
2022/09/03 04:31:30;;;;;;;;;;;13.70;99.90;;;;;;4979002;28;19957;-93
2022/09/03 04:33:55;;;;;;;;;;;13.70;99.90;;;;;;4980084;28;19933;-92
2022/09/03 04:36:21;;;;;;;;;;;13.60;99.90;;;;;;4979334;28;19925;-91
2022/09/03 04:38:48;;;;;;;;;;;13.40;99.90;;;;;;4995749;28;20024;-91
2022/09/03 04:41:14;;;;;;;;;;;13.40;99.90;;;;;;5011769;28;19925;-93
2022/09/03 04:43:43;;;;;;;;;;;13.20;99.90;;;;;;5011833;28;20032;-92
2022/09/03 04:46:09;;;;;;;;;;;13.20;99.90;;;;;;4980239;28;19926;-92
2022/09/03 04:48:35;;;;;;;;;;;13.20;99.90;;;;;;4979420;28;19925;-94
2022/09/03 04:51:04;;;;;;;;;;;13.20;99.90;;;;;;5025050;28;19948;-93
2022/09/03 04:53:29;;;;;;;;;;;13.30;99.90;;;;;;5013700;28;19930;-92
2022/09/03 04:55:55;;;;;;;;;;;13.30;99.90;;;;;;4997112;28;19926;-91
2022/09/03 04:58:21;;;;;;;;;;;13.30;99.90;;;;;;4980087;28;19956;-92
2022/09/03 05:00:46;;;;;;;;;;;13.30;99.90;;;;;;4982272;28;19976;-92
2022/09/03 05:03:12;;;;;;;;;;;13.30;99.90;;;;;;5029554;28;20358;-91
2022/09/03 05:05:37;;;;;;;;;;;13.30;99.90;;;;;;4980831;28;20386;-94
2022/09/03 05:08:03;;;;;;;;;;;13.40;99.90;;;;;;5011593;28;19992;-92
2022/09/03 05:10:29;;;;;;;;;;;13.30;99.90;;;;;;4979261;28;20002;-92
2022/09/03 05:13:12;;;;;;;;;;;13.20;99.90;;;;;;4978552;28;19926;-92
2022/09/03 05:15:39;;;;;;;;;;;13.20;99.90;;;;;;4979470;28;20409;-94
2022/09/03 05:18:04;;;;;;;;;;;13.10;99.90;;;;;;4995716;28;19968;-93
2022/09/03 05:20:31;;;;;;;;;;;13.20;99.90;;;;;;4978638;28;20000;-92
2022/09/03 05:23:00;;;;;;;;;;;13.30;99.90;;;;;;4977500;28;19932;-91
2022/09/03 05:25:25;;;;;;;;;;;13.30;99.90;;;;;;4977347;28;19933;-93
2022/09/03 05:27:53;;;;;;;;;;;13.40;99.90;;;;;;5010763;28;19988;-93
2022/09/03 05:30:21;;;;;;;;;;;13.30;99.90;;;;;;5010748;28;19926;-93
2022/09/03 05:32:47;;;;;;;;;;;13.40;99.90;;;;;;4993563;28;20367;-93
2022/09/03 05:35:13;;;;;;;;;;;13.50;99.90;;;;;;4978530;28;19932;-95
2022/09/03 05:37:39;;;;;;;;;;;13.60;99.90;;;;;;4977560;28;20025;-92
2022/09/03 05:40:05;;;;;;;;;;;13.70;99.90;;;;;;5010612;28;20250;-90
2022/09/03 05:42:31;;;;;;;;;;;13.90;99.90;;;;;;4994873;28;19937;-92
2022/09/03 05:44:56;;;;;;;;;;;14.10;99.90;;;;;;5027638;28;19930;-91
2022/09/03 05:47:22;;;;;;;;;;;14.70;99.90;;;;;;4978064;28;19953;-92
2022/09/03 05:49:48;;;;;;;;;;;15.20;99.90;;;;;;4995053;28;19984;-93
2022/09/03 05:52:15;;;;;;;;;;;15.80;99.90;;;;;;5000141;28;19930;-91
2022/09/03 05:54:41;;;;;;;;;;;16.40;99.90;;;;;;4984416;28;20429;-91
2022/09/03 05:57:06;;;;;;;;;;;17.00;99.90;;;;;;4979417;28;19926;-93
2022/09/03 05:59:32;;;;;;;;;;;17.50;99.90;;;;;;4978070;28;20285;-92
2022/09/03 06:01:57;;;;;;;;;;;17.50;99.90;;;;;;4994839;28;19926;-92
2022/09/03 06:04:23;;;;;;;;;;;17.80;99.90;;;;;;5010118;28;19933;-93
2022/09/03 06:06:49;;;;;;;;;;;18.30;99.90;;;;;;5026943;28;19933;-92
2022/09/03 06:09:16;;;;;;;;;;;18.60;99.80;;;;;;5027423;28;20400;-93
2022/09/03 06:11:42;;;;;;;;;;;18.60;99.50;;;;;;5010827;28;19937;-92
2022/09/03 06:14:08;;;;;;;;;;;18.60;99.80;;;;;;4978036;28;19925;-92
2022/09/03 06:16:34;;;;;;;;;;;18.20;99.90;;;;;;5013823;28;20028;-94
2022/09/03 06:19:00;;;;;;;;;;;18.20;99.50;;;;;;4989529;28;19925;-90
2022/09/03 06:21:26;;;;;;;;;;;17.50;99.90;;;;;;5032651;28;19918;-89
2022/09/03 06:23:52;;;;;;;;;;;17.20;99.90;;;;;;5015758;28;19994;-92
2022/09/03 06:26:18;;;;;;;;;;;17.60;99.90;;;;;;4999499;28;19914;-91
2022/09/03 06:28:44;;;;;;;;;;;17.40;99.90;;;;;;4999546;28;19914;-93
2022/09/03 06:31:11;;;;;;;;;;;17.60;99.90;;;;;;4988762;28;19948;-93
2022/09/03 06:33:40;;;;;;;;;;;18.20;99.90;;;;;;4968827;28;20315;-93
2022/09/03 06:36:06;;;;;;;;;;;18.60;99.90;;;;;;4966142;28;19925;-93
2022/09/03 06:38:34;;;;;;;;;;;18.90;99.10;;;;;;4980465;28;19933;-92
2022/09/03 06:41:03;;;;;;;;;;;19.90;98.20;;;;;;4996335;28;19930;-93
2022/09/03 06:43:30;;;;;;;;;;;20.00;97.80;;;;;;4997178;28;19926;-95
2022/09/03 06:45:56;;;;;;;;;;;19.80;97.30;;;;;;4981389;28;19926;-91
2022/09/03 06:48:22;;;;;;;;;;;20.20;97.90;;;;;;5017723;28;20012;-93
2022/09/03 06:50:57;;;;;;;;;;;20.70;97.00;;;;;;4994052;28;19977;-92
2022/09/03 06:53:26;;;;;;;;;;;22.70;96.60;;;;;;5124766;23;19933;-91
2022/09/03 06:55:52;;;;;;;;;;;20.20;96.40;;;;;;5027091;28;19999;-91
2022/09/03 06:58:18;;;;;;;;;;;21.60;96.40;;;;;;5036346;28;19939;-92
2022/09/03 07:00:44;;;;;;;;;;;21.70;95.70;;;;;;5036266;28;20276;-93
2022/09/03 07:03:09;;;;;;;;;;;21.40;95.50;;;;;;5052400;28;20444;-94
2022/09/03 07:05:36;;;;;;;;;;;21.10;95.60;;;;;;5043969;28;20392;-93
2022/09/03 07:08:09;;;;;;;;;;;21.10;95.90;;;;;;5035195;28;19994;-93
2022/09/03 07:10:37;;;;;;;;;;;21.50;96.10;;;;;;5032801;28;19940;-93
2022/09/03 07:13:05;;;;;;;;;;;22.10;95.10;;;;;;5033711;28;19925;-93
2022/09/03 07:15:31;;;;;;;;;;;21.70;95.10;;;;;;5032659;28;19932;-92
2022/09/03 07:17:57;;;;;;;;;;;22.00;95.10;;;;;;5031553;28;19925;-92
2022/09/03 07:20:23;;;;;;;;;;;22.40;94.90;;;;;;5032522;28;19929;-93
2022/09/03 07:22:48;;;;;;;;;;;22.90;94.10;;;;;;5017162;28;19936;-92
2022/09/03 07:25:14;;;;;;;;;;;22.30;94.30;;;;;;5017054;28;19948;-93
2022/09/03 07:27:40;;;;;;;;;;;22.60;94.50;;;;;;5015993;28;19925;-93
2022/09/03 07:30:09;;;;;;;;;;;22.50;94.20;;;;;;5017628;28;19976;-93
2022/09/03 07:32:36;;;;;;;;;;;23.10;93.90;;;;;;5033758;28;19931;-92
2022/09/03 07:35:07;;;;;;;;;;;22.80;94.40;;;;;;5018499;28;19964;-92
2022/09/03 07:37:34;;;;;;;;;;;23.00;94.10;;;;;;5009421;28;19929;-95
2022/09/03 07:40:00;;;;;;;;;;;22.70;94.60;;;;;;5022827;28;19933;-91
2022/09/03 07:42:29;;;;;;;;;;;22.60;94.80;;;;;;5029266;28;19925;-88
2022/09/03 07:44:57;;;;;;;;;;;23.30;94.90;;;;;;5054743;28;19925;-90
2022/09/03 07:47:25;;;;;;;;;;;23.60;94.20;;;;;;5039771;28;19925;-89
2022/09/03 07:49:50;;;;;;;;;;;23.20;94.00;;;;;;5040830;28;19935;-90
2022/09/03 07:52:17;;;;;;;;;;;24.20;93.40;;;;;;5044960;28;19925;-90
2022/09/03 07:54:43;;;;;;;;;;;23.90;93.40;;;;;;5048942;28;19925;-88
2022/09/03 07:57:09;;;;;;;;;;;23.30;93.40;;;;;;5032095;28;19936;-90
2022/09/03 07:59:34;;;;;;;;;;;24.00;93.70;;;;;;5029626;28;19941;-91
2022/09/03 08:02:00;;;;;;;;;;;24.00;93.30;;;;;;5030083;28;20270;-92
2022/09/03 08:04:26;;;;;;;;;;;24.30;93.30;;;;;;5061898;28;19925;-86
2022/09/03 08:06:54;;;;;;;;;;;24.40;93.40;;;;;;5024020;28;19925;-91
2022/09/03 08:09:19;;;;;;;;;;;24.10;92.90;;;;;;5040992;28;19924;-91
2022/09/03 08:11:48;;;;;;;;;;;24.40;92.90;;;;;;5054663;28;19928;-88
2022/09/03 08:14:14;;;;;;;;;;;24.40;92.80;;;;;;5053929;28;20405;-89
2022/09/03 08:16:45;;;;;;;;;;;24.10;92.90;;;;;;5038587;28;19924;-92
2022/09/03 08:19:13;;;;;;;;;;;24.50;92.30;;;;;;5060802;28;20428;-91
2022/09/03 08:21:40;;;;;;;;;;;24.30;92.20;;;;;;5059393;28;19925;-90
2022/09/03 08:24:06;;;;;;;;;;;24.90;91.70;;;;;;5049207;28;19929;-90
2022/09/03 08:26:35;;;;;;;;;;;24.90;92.00;;;;;;5052221;28;20361;-89
2022/09/03 08:29:01;;;;;;;;;;;24.90;91.60;;;;;;5053398;28;20364;-89
2022/09/03 08:31:27;;;;;;;;;;;25.20;91.80;;;;;;5050926;28;19964;-87
2022/09/03 08:33:54;;;;;;;;;;;24.80;91.90;;;;;;5024334;28;19948;-88
2022/09/03 08:36:28;;;;;;;;;;;25.00;91.50;;;;;;5026221;28;20305;-89
2022/09/03 08:38:54;;;;;;;;;;;25.60;91.20;;;;;;5042013;28;19929;-87
2022/09/03 08:41:22;;;;;;;;;;;25.70;91.20;;;;;;5009409;28;20418;-88
2022/09/03 08:44:21;;;;;;;;;;;25.60;91.10;;;;;;5017967;28;20020;-88
2022/09/03 08:46:46;;;;;;;;;;;25.60;91.30;;;;;;5005946;28;19936;-90
2022/09/03 08:49:13;;;;;;;;;;;25.80;91.30;;;;;;5065952;28;19925;-90
2022/09/03 08:51:39;;;;;;;;;;;25.20;91.00;;;;;;5050753;28;19927;-93
2022/09/03 08:54:12;;;;;;;;;;;25.20;91.50;;;;;;5045559;28;19925;-92
2022/09/03 08:56:38;;;;;;;;;;;25.20;91.90;;;;;;5042513;28;19935;-89
2022/09/03 08:59:04;;;;;;;;;;;25.40;91.70;;;;;;5062368;28;19924;-94
2022/09/03 09:01:34;;;;;;;;;;;25.30;91.30;;;;;;5054630;28;19925;-93
2022/09/03 09:04:18;;;;;;;;;;;25.60;91.10;;;;;;5039242;28;19964;-95
2022/09/03 09:06:50;;;;;;;;;;;25.70;90.90;;;;;;5040561;28;19925;-93
2022/09/03 09:09:24;;;;;;;;;;;26.10;91.30;;;;;;5040777;28;19925;-91
2022/09/03 09:11:56;;;;;;;;;;;25.90;91.20;;;;;;5056202;28;20019;-93
2022/09/03 09:14:25;;;;;;;;;;;25.50;91.10;;;;;;5020802;28;19925;-89
2022/09/03 09:17:00;;;;;;;;;;;26.10;91.50;;;;;;5000333;28;19929;-92
2022/09/03 09:20:06;;;;;;;;;;;26.10;90.90;;;;;;5016578;28;19981;-91
2022/09/03 09:22:37;;;;;;;;;;;26.50;91.00;;;;;;4955009;28;19953;-91
2022/09/03 09:25:08;;;;;;;;;;;26.50;90.50;;;;;;4965672;28;19988;-89
2022/09/03 09:27:33;;;;;;;;;;;26.70;90.30;;;;;;4990940;28;19936;-89
2022/09/03 09:30:00;;;;;;;;;;;26.20;90.80;;;;;;5026788;28;20012;-87
2022/09/03 09:32:26;;;;;;;;;;;26.30;90.50;;;;;;5026928;28;19965;-90
2022/09/03 09:34:53;;;;;;;;;;;26.80;90.90;;;;;;5024011;28;20011;-89
2022/09/03 09:37:18;;;;;;;;;;;26.90;90.50;;;;;;5035946;28;19979;-90
2022/09/03 09:39:55;;;;;;;;;;;27.10;90.30;;;;;;5038478;28;19925;-90
2022/09/03 09:43:18;;;;;;;;;;;27.00;90.00;;;;;;5068522;28;19936;-96
2022/09/03 09:45:52;;;;;;;;;;;27.50;90.40;;;;;;5056032;28;19929;-92
2022/09/03 09:48:20;;;;;;;;;;;29.00;90.40;;;;;;5056709;28;19975;-95
2022/09/03 09:50:46;;;;;;;;;;;27.80;89.60;;;;;;5062506;28;19932;-93
2022/09/03 09:53:15;;;;;;;;;;;28.10;90.10;;;;;;5068416;28;19924;-94
2022/09/03 09:55:51;;;;;;;;;;;27.50;89.80;;;;;;5039121;28;19912;-92
2022/09/03 09:58:23;;;;;;;;;;;26.90;88.40;;;;;;5060114;28;19935;-92
2022/09/03 10:00:59;;;;;;;;;;;27.50;88.80;;;;;;5077314;28;19909;-91
2022/09/03 10:03:26;;;;;;;;;;;27.00;89.10;;;;;;5058853;28;19917;-92
2022/09/03 10:08:51;;;;;;;;;;;26.50;88.90;;;;;;5008235;28;20397;-90
2022/09/03 10:11:22;;;;;;;;;;;27.10;88.80;;;;;;5020060;28;19940;-92
2022/09/03 10:13:48;;;;;;;;;;;27.90;89.00;;;;;;5019586;28;19932;-92
2022/09/03 10:16:26;;;;;;;;;;;27.70;89.20;;;;;;5035630;28;20369;-90
2022/09/03 10:19:00;;;;;;;;;;;27.10;88.00;;;;;;5017501;28;19929;-91
2022/09/03 10:21:40;;;;;;;;;;;27.20;89.50;;;;;;5017445;28;20285;-90
2022/09/03 10:24:27;;;;;;;;;;;27.80;87.30;;;;;;5029280;28;20383;-90
2022/09/03 10:26:54;;;;;;;;;;;27.60;87.30;;;;;;5020895;28;20395;-93
2022/09/03 10:29:28;;;;;;;;;;;26.90;88.00;;;;;;5022166;28;20373;-93
2022/09/03 10:32:08;;;;;;;;;;;27.30;88.70;;;;;;5019085;28;19925;-92
2022/09/03 10:34:42;;;;;;;;;;;27.00;86.90;;;;;;5032940;28;19925;-89
2022/09/03 10:37:17;;;;;;;;;;;27.10;86.60;;;;;;5017172;28;19928;-92
2022/09/03 10:39:46;;;;;;;;;;;26.80;87.10;;;;;;5002811;28;19925;-93
2022/09/03 10:42:22;;;;;;;;;;;26.20;86.60;;;;;;5038042;28;19926;-95
2022/09/03 10:44:51;;;;;;;;;;;26.60;88.00;;;;;;5022589;28;20145;-93
2022/09/03 10:47:36;;;;;;;;;;;27.10;87.30;;;;;;5036515;28;20262;-94
2022/09/03 10:50:07;;;;;;;;;;;27.00;87.00;;;;;;5035002;28;19936;-93
2022/09/03 10:52:38;;;;;;;;;;;26.90;86.70;;;;;;5022809;28;19964;-94
2022/09/03 10:55:17;;;;;;;;;;;27.00;87.40;;;;;;5037240;28;19948;-95
2022/09/03 10:57:44;;;;;;;;;;;26.90;86.30;;;;;;5020503;28;20044;-89
2022/09/03 11:00:13;;;;;;;;;;;26.80;86.70;;;;;;5032948;28;20396;-90
2022/09/03 11:02:49;;;;;;;;;;;26.50;87.30;;;;;;5041937;28;19979;-90
2022/09/03 11:05:17;;;;;;;;;;;26.80;86.40;;;;;;5031298;28;19999;-88
2022/09/03 11:07:57;;;;;;;;;;;26.50;86.20;;;;;;5032710;28;19932;-93
2022/09/03 11:10:32;;;;;;;;;;;26.40;86.20;;;;;;5019446;28;19940;-94
2022/09/03 11:13:24;;;;;;;;;;;26.40;86.90;;;;;;5016606;28;19929;-94
2022/09/03 11:15:51;;;;;;;;;;;26.00;86.50;;;;;;5030841;28;20498;-93
2022/09/03 11:18:20;;;;;;;;;;;25.40;87.20;;;;;;5016418;28;19925;-93
2022/09/03 11:20:48;;;;;;;;;;;25.30;87.10;;;;;;5035387;28;19976;-93
2022/09/03 11:23:17;;;;;;;;;;;25.80;86.60;;;;;;5002663;28;19925;-94
2022/09/03 11:25:45;;;;;;;;;;;27.00;88.60;;;;;;5018505;28;19925;-92
2022/09/03 11:28:20;;;;;;;;;;;25.10;87.30;;;;;;5017711;28;19974;-94
2022/09/03 11:30:49;;;;;;;;;;;25.00;85.90;;;;;;5036219;28;19925;-95
2022/09/03 11:33:16;;;;;;;;;;;25.10;86.50;;;;;;5018990;28;19925;-90
2022/09/03 11:35:44;;;;;;;;;;;25.40;86.80;;;;;;5034980;28;20464;-95
2022/09/03 11:38:17;;;;;;;;;;;24.40;87.10;;;;;;5032595;28;19932;-92
2022/09/03 11:41:06;;;;;;;;;;;25.30;85.90;;;;;;5035480;28;19936;-93
2022/09/03 11:43:32;;;;;;;;;;;25.50;86.10;;;;;;5025792;28;19925;-94
2022/09/03 11:46:05;;;;;;;;;;;25.60;87.80;;;;;;5037563;28;19929;-93
2022/09/03 11:48:38;;;;;;;;;;;25.50;87.30;;;;;;5021070;28;19925;-88
2022/09/03 11:51:14;;;;;;;;;;;25.20;86.40;;;;;;5015416;28;19929;-86
2022/09/03 11:53:39;;;;;;;;;;;25.20;86.50;;;;;;5034948;28;19925;-88
2022/09/03 11:56:05;;;;;;;;;;;25.40;86.90;;;;;;5002254;28;19948;-87
2022/09/03 11:58:32;;;;;;;;;;;25.60;86.50;;;;;;5060110;28;19931;-88
2022/09/03 12:00:58;;;;;;;;;;;25.70;86.50;;;;;;5058259;28;19928;-89
2022/09/03 12:03:27;;;;;;;;;;;25.70;86.50;;;;;;5084835;28;19935;-90
2022/09/03 12:05:59;;;;;;;;;;;25.70;86.20;;;;;;5074890;28;19931;-89
2022/09/03 12:08:37;;;;;;;;;;;25.80;85.40;;;;;;5057522;28;20019;-87
2022/09/03 12:11:20;;;;;;;;;;;25.80;84.90;;;;;;5074843;28;19967;-88
2022/09/03 12:13:49;;;;;;;;;;;25.60;85.40;;;;;;5057954;28;19968;-89
2022/09/03 12:16:23;;;;;;;;;;;26.00;85.60;;;;;;5059453;28;19925;-90
2022/09/03 12:18:51;;;;;;;;;;;25.50;85.30;;;;;;5069065;28;20308;-89
2022/09/03 12:21:17;;;;;;;;;;;25.50;85.70;;;;;;5042318;28;19924;-89
2022/09/03 12:23:48;;;;;;;;;;;25.20;85.50;;;;;;5058226;28;20261;-89
2022/09/03 12:26:14;;;;;;;;;;;25.60;85.60;;;;;;5074378;28;19928;-88
2022/09/03 12:28:41;;;;;;;;;;;25.50;85.90;;;;;;5020282;28;19933;-89
2022/09/03 12:31:20;;;;;;;;;;;25.60;85.80;;;;;;5004154;28;19925;-87
2022/09/03 12:33:46;;;;;;;;;;;25.70;85.80;;;;;;5018761;28;20273;-88
2022/09/03 12:36:12;;;;;;;;;;;25.70;85.30;;;;;;5014737;28;20238;-88
2022/09/03 12:38:37;;;;;;;;;;;25.60;85.20;;;;;;5005075;28;19948;-90
2022/09/03 12:41:03;;;;;;;;;;;25.70;85.90;;;;;;5023095;28;19976;-91
2022/09/03 12:43:29;;;;;;;;;;;25.10;85.70;;;;;;5047420;28;19924;-91
2022/09/03 12:45:54;;;;;;;;;;;25.50;85.60;;;;;;5019693;28;19988;-91
2022/09/03 12:48:20;;;;;;;;;;;25.60;85.10;;;;;;5046842;28;20006;-92
2022/09/03 12:50:48;;;;;;;;;;;25.60;85.10;;;;;;5035026;28;19933;-90
2022/09/03 12:53:17;;;;;;;;;;;25.90;85.40;;;;;;5037240;28;19928;-90
2022/09/03 12:55:47;;;;;;;;;;;25.90;84.80;;;;;;5035051;28;19971;-92
2022/09/03 12:58:21;;;;;;;;;;;25.80;85.30;;;;;;5045554;28;19925;-93
2022/09/03 13:00:59;;;;;;;;;;;25.90;84.90;;;;;;5015302;28;19931;-90
2022/09/03 13:03:33;;;;;;;;;;;26.00;84.40;;;;;;5023405;28;20343;-89
2022/09/03 13:06:00;;;;;;;;;;;25.20;84.80;;;;;;5040539;28;19940;-91
2022/09/03 13:08:31;;;;;;;;;;;25.50;85.40;;;;;;5039364;28;20384;-91
2022/09/03 13:11:01;;;;;;;;;;;25.60;85.50;;;;;;5033524;28;20391;-90
2022/09/03 13:13:27;;;;;;;;;;;25.60;85.20;;;;;;5036998;28;19925;-90
2022/09/03 13:16:08;;;;;;;;;;;25.50;84.60;;;;;;5016572;28;19985;-90
2022/09/03 13:18:37;;;;;;;;;;;25.60;84.70;;;;;;5048784;28;19925;-92
2022/09/03 13:21:09;;;;;;;;;;;25.50;85.10;;;;;;5045183;28;19926;-92
2022/09/03 13:23:49;;;;;;;;;;;25.80;84.70;;;;;;5045668;28;19991;-94
2022/09/03 13:26:24;;;;;;;;;;;25.70;84.60;;;;;;5042679;28;20012;-94
2022/09/03 13:28:54;;;;;;;;;;;25.80;84.70;;;;;;5043822;28;19956;-94
2022/09/03 13:31:31;;;;;;;;;;;25.60;84.40;;;;;;5035965;28;19929;-93
2022/09/03 13:34:23;;;;;;;;;;;25.70;84.20;;;;;;5031188;28;19940;-93
2022/09/03 13:37:07;;;;;;;;;;;25.50;84.40;;;;;;5041505;28;19932;-94
2022/09/03 13:39:36;;;;;;;;;;;25.40;84.80;;;;;;5039817;28;19952;-93
2022/09/03 13:42:04;;;;;;;;;;;25.70;84.80;;;;;;5046712;28;19960;-91
2022/09/03 13:44:49;;;;;;;;;;;26.10;84.50;;;;;;5055470;28;19913;-90
2022/09/03 13:47:23;;;;;;;;;;;25.90;84.90;;;;;;5052566;28;19949;-91
2022/09/03 13:52:41;;;;;;;;;;;26.10;84.00;;;;;;5041924;28;19929;-90
2022/09/03 13:55:16;;;;;;;;;;;26.00;84.80;;;;;;5039632;28;19925;-91
2022/09/03 13:57:45;;;;;;;;;;;26.10;85.20;;;;;;5036740;28;19925;-91
2022/09/03 14:00:13;;;;;;;;;;;25.90;84.70;;;;;;5050297;28;19929;-92
2022/09/03 14:02:44;;;;;;;;;;;25.90;84.80;;;;;;5019172;28;20390;-92
2022/09/03 14:05:25;;;;;;;;;;;25.90;84.70;;;;;;5022157;28;19929;-93
2022/09/03 14:07:54;;;;;;;;;;;26.00;84.70;;;;;;5037981;28;19925;-91
2022/09/03 14:10:21;;;;;;;;;;;25.80;84.80;;;;;;5039887;28;19986;-92
2022/09/03 14:12:52;;;;;;;;;;;26.20;84.90;;;;;;5022101;28;20511;-93
2022/09/03 14:15:19;;;;;;;;;;;26.00;85.30;;;;;;5027423;28;20439;-90
2022/09/03 14:17:45;;;;;;;;;;;25.80;84.80;;;;;;5046369;28;19925;-92
2022/09/03 14:20:22;;;;;;;;;;;26.00;85.50;;;;;;5033222;28;19933;-93
2022/09/03 14:23:06;;;;;;;;;;;26.20;86.30;;;;;;5044838;28;20057;-93
2022/09/03 14:25:34;;;;;;;;;;;26.00;86.50;;;;;;4998632;28;19929;-95
2022/09/03 14:28:19;;;;;;;;;;;25.10;85.90;;;;;;5014268;28;19932;-92
2022/09/03 14:30:49;;;;;;;;;;;25.30;85.60;;;;;;5049324;28;19925;-92
2022/09/03 14:33:26;;;;;;;;;;;26.10;86.40;;;;;;5016745;28;20381;-93
2022/09/03 14:36:11;;;;;;;;;;;25.90;85.90;;;;;;5033867;28;19931;-95
2022/09/03 14:38:55;;;;;;;;;;;25.80;85.80;;;;;;5015818;28;20011;-95
2022/09/03 14:41:21;;;;;;;;;;;26.20;86.00;;;;;;5050772;28;19964;-94